Time;durP1;ratioP1;P1;durP2;ratioP2;P2;SDS_P1;SDS_P2;PMS_P1;PMS_P2;Temp;Humidity;BMP_temperature;BMP_pressure;BME280_temperature;BME280_humidity;BME280_pressure;Samples;Min_cycle;Max_cycle;Signal;HPM_P1;HPM_P2
2021/04/21 00:01:14;;;;;;;12.75;7.57;;;8.40;70.80;;;;;;4995015;28;20057;-54
2021/04/21 00:03:41;;;;;;;12.73;7.93;;;8.40;71.00;;;;;;5005653;28;20030;-55
2021/04/21 00:06:08;;;;;;;12.32;7.97;;;8.30;71.00;;;;;;5000062;28;20514;-52
2021/04/21 00:08:36;;;;;;;16.85;7.90;;;8.20;71.10;;;;;;5001779;28;20061;-53
2021/04/21 00:11:02;;;;;;;12.82;7.70;;;8.20;71.40;;;;;;5009150;28;20096;-55
2021/04/21 00:13:28;;;;;;;11.02;7.43;;;8.20;71.90;;;;;;5003787;28;20038;-53
2021/04/21 00:15:55;;;;;;;11.70;7.28;;;8.20;70.60;;;;;;5004640;28;20122;-54
2021/04/21 00:18:23;;;;;;;13.88;8.23;;;8.20;71.30;;;;;;5001611;28;20486;-52
2021/04/21 00:20:55;;;;;;;14.05;8.18;;;8.20;71.10;;;;;;5010232;28;20233;-53
2021/04/21 00:23:22;;;;;;;14.25;8.15;;;8.20;71.20;;;;;;4997616;28;20402;-52
2021/04/21 00:25:52;;;;;;;14.20;7.65;;;8.10;70.70;;;;;;5004815;28;20052;-55
2021/04/21 00:28:19;;;;;;;14.07;7.78;;;8.20;70.80;;;;;;5002638;28;20061;-54
2021/04/21 00:30:46;;;;;;;12.93;8.38;;;8.20;70.70;;;;;;5004700;28;20038;-54
2021/04/21 00:33:16;;;;;;;14.07;8.68;;;8.10;70.70;;;;;;5000647;28;20587;-54
2021/04/21 00:35:44;;;;;;;11.80;8.13;;;8.10;71.20;;;;;;4998151;28;20105;-57
2021/04/21 00:38:16;;;;;;;12.73;7.43;;;8.00;71.30;;;;;;5021269;28;20058;-56
2021/04/21 00:40:45;;;;;;;13.27;7.72;;;8.00;71.30;;;;;;5004001;28;20048;-53
2021/04/21 00:43:49;;;;;;;11.30;6.97;;;8.00;71.40;;;;;;5004455;28;20065;-55
2021/04/21 00:46:23;;;;;;;12.50;6.65;;;7.90;71.60;;;;;;4997126;28;20058;-54
2021/04/21 00:49:28;;;;;;;11.77;7.60;;;7.80;71.60;;;;;;5009400;28;20050;-56
2021/04/21 00:52:05;;;;;;;9.25;6.22;;;7.80;72.00;;;;;;5005965;28;20429;-54
2021/04/21 00:54:45;;;;;;;11.38;7.70;;;7.70;71.90;;;;;;4999645;28;20096;-57
2021/04/21 00:57:37;;;;;;;12.15;7.68;;;7.50;72.20;;;;;;5004038;28;20054;-53
2021/04/21 01:00:09;;;;;;;13.95;7.47;;;7.40;72.30;;;;;;5002292;28;20038;-54
2021/04/21 01:02:39;;;;;;;14.57;7.50;;;7.40;72.30;;;;;;4998422;28;20037;-54
2021/04/21 01:05:12;;;;;;;14.82;8.00;;;7.30;72.70;;;;;;5008703;28;20521;-54
2021/04/21 01:07:44;;;;;;;13.00;7.72;;;7.20;72.90;;;;;;4995716;28;20038;-54
2021/04/21 01:10:13;;;;;;;12.85;6.93;;;7.10;73.30;;;;;;5001278;28;20108;-54
2021/04/21 01:12:42;;;;;;;13.02;7.25;;;7.10;73.70;;;;;;4999131;28;20520;-56
2021/04/21 01:15:12;;;;;;;11.00;6.70;;;7.00;73.90;;;;;;4999418;28;20039;-54
2021/04/21 01:17:40;;;;;;;12.02;7.45;;;6.90;74.10;;;;;;5009656;28;20041;-54
2021/04/21 01:20:16;;;;;;;10.00;6.60;;;6.80;74.10;;;;;;5010452;28;20401;-53
2021/04/21 01:22:47;;;;;;;12.18;7.30;;;6.70;74.50;;;;;;5000774;28;20050;-56
2021/04/21 01:25:31;;;;;;;10.00;6.85;;;6.60;74.80;;;;;;4997363;28;20101;-53
2021/04/21 01:28:05;;;;;;;12.73;6.95;;;6.50;75.10;;;;;;5005946;28;20050;-54
2021/04/21 01:30:35;;;;;;;13.32;7.68;;;6.50;75.40;;;;;;4993662;28;20539;-54
2021/04/21 01:33:05;;;;;;;14.48;7.13;;;6.40;75.80;;;;;;5006139;28;20049;-55
2021/04/21 01:35:32;;;;;;;11.75;7.05;;;6.40;76.00;;;;;;4997313;28;20046;-53
2021/04/21 01:38:01;;;;;;;11.65;7.90;;;6.20;76.10;;;;;;5006848;28;20041;-54
2021/04/21 01:40:31;;;;;;;12.05;7.22;;;6.20;76.70;;;;;;5000024;28;20064;-52
2021/04/21 01:43:07;;;;;;;10.15;7.05;;;6.20;76.80;;;;;;5000614;28;20085;-53
2021/04/21 01:45:35;;;;;;;11.20;7.25;;;6.10;77.10;;;;;;5000655;28;20073;-51
2021/04/21 01:48:07;;;;;;;10.77;6.55;;;6.10;76.80;;;;;;5003678;28;20057;-50
2021/04/21 01:50:34;;;;;;;15.77;7.22;;;6.00;77.10;;;;;;4998722;28;20494;-54
2021/04/21 01:53:34;;;;;;;10.70;7.32;;;6.00;77.30;;;;;;4996785;28;20041;-52
2021/04/21 01:56:36;;;;;;;12.77;7.80;;;6.00;78.10;;;;;;4996567;28;20492;-51
2021/04/21 01:59:22;;;;;;;13.25;7.82;;;5.90;77.50;;;;;;4920913;28;20054;-52
2021/04/21 02:02:11;;;;;;;11.65;8.07;;;5.90;77.60;;;;;;4997401;28;20394;-51
2021/04/21 02:04:57;;;;;;;12.88;8.05;;;5.90;78.00;;;;;;4994597;28;20030;-51
2021/04/21 02:07:32;;;;;;;13.35;8.50;;;5.90;77.50;;;;;;4992864;28;20042;-51
2021/04/21 02:10:43;;;;;;;15.93;8.30;;;5.90;77.70;;;;;;4998996;28;20042;-53
2021/04/21 02:13:25;;;;;;;15.05;8.60;;;6.00;78.20;;;;;;5000126;28;20067;-54
2021/04/21 02:16:15;;;;;;;15.07;8.23;;;5.90;78.00;;;;;;5005552;28;20421;-55
2021/04/21 02:18:52;;;;;;;15.40;8.80;;;5.90;78.40;;;;;;4992527;28;20050;-55
2021/04/21 02:21:26;;;;;;;15.50;8.40;;;5.90;78.60;;;;;;4997437;28;20046;-54
2021/04/21 02:24:25;;;;;;;14.55;8.63;;;5.90;78.10;;;;;;5006215;28;20050;-56
2021/04/21 02:27:13;;;;;;;16.70;8.55;;;5.90;78.00;;;;;;4993951;28;20042;-56
2021/04/21 02:29:55;;;;;;;14.15;9.05;;;5.90;78.20;;;;;;5004480;28;20038;-54
2021/04/21 02:32:37;;;;;;;14.17;9.20;;;5.90;78.30;;;;;;4999160;28;20128;-55
2021/04/21 02:35:32;;;;;;;13.48;8.82;;;5.90;78.00;;;;;;4994949;28;20300;-52
2021/04/21 02:38:17;;;;;;;13.07;9.27;;;5.90;78.10;;;;;;4983327;28;20046;-55
2021/04/21 02:41:09;;;;;;;16.38;9.15;;;5.80;78.00;;;;;;5000769;28;20056;-55
2021/04/21 02:43:50;;;;;;;14.00;8.90;;;5.80;78.50;;;;;;4997459;28;20549;-54
2021/04/21 02:46:35;;;;;;;13.60;8.73;;;5.70;78.30;;;;;;5004269;28;20414;-55
2021/04/21 02:49:38;;;;;;;16.73;8.80;;;5.60;78.40;;;;;;4997546;28;20273;-52
2021/04/21 02:52:18;;;;;;;18.13;9.30;;;5.60;78.50;;;;;;4995745;28;20038;-54
2021/04/21 02:55:35;;;;;;;16.52;9.30;;;5.50;78.60;;;;;;4998581;28;20041;-55
2021/04/21 02:58:24;;;;;;;17.55;9.70;;;5.60;79.30;;;;;;4987316;28;20081;-54
2021/04/21 03:00:57;;;;;;;17.92;9.88;;;5.60;79.60;;;;;;5001699;28;20034;-55
2021/04/21 03:03:42;;;;;;;14.52;9.98;;;5.60;79.80;;;;;;5009159;28;20042;-52
2021/04/21 03:06:13;;;;;;;16.95;10.13;;;5.70;79.70;;;;;;4997093;28;20048;-55
2021/04/21 03:08:51;;;;;;;15.13;9.70;;;5.70;79.70;;;;;;5015388;28;20045;-55
2021/04/21 03:11:21;;;;;;;14.77;9.88;;;5.70;79.60;;;;;;4992546;28;20086;-55
2021/04/21 03:14:04;;;;;;;18.02;9.40;;;5.70;79.60;;;;;;5002302;28;20085;-55
2021/04/21 03:16:36;;;;;;;;;;;5.70;79.60;;;;;;5000373;28;20502;-55
2021/04/21 03:19:06;;;;;;;13.98;9.85;;;5.70;79.90;;;;;;4994980;28;20401;-54
2021/04/21 03:21:36;;;;;;;19.25;10.70;;;5.60;79.70;;;;;;4998194;28;20073;-55
2021/04/21 03:24:12;;;;;;;15.23;9.93;;;5.60;80.00;;;;;;4994807;28;20038;-54
2021/04/21 03:26:40;;;;;;;17.10;11.02;;;5.60;79.70;;;;;;5001090;28;20069;-53
2021/04/21 03:29:09;;;;;;;17.73;10.75;;;5.60;80.00;;;;;;4998733;28;20053;-55
2021/04/21 03:31:36;;;;;;;19.08;11.13;;;5.70;80.40;;;;;;5007215;28;20042;-56
2021/04/21 03:34:08;;;;;;;15.23;10.05;;;5.70;80.60;;;;;;5004930;28;20049;-56
2021/04/21 03:36:36;;;;;;;16.85;10.45;;;5.60;80.30;;;;;;5000077;28;20077;-55
2021/04/21 03:39:02;;;;;;;15.85;10.57;;;5.60;80.30;;;;;;4994957;28;20454;-55
2021/04/21 03:41:28;;;;;;;18.70;11.38;;;5.60;80.80;;;;;;5003023;28;20038;-55
2021/04/21 03:43:55;;;;;;;16.45;10.57;;;5.60;81.00;;;;;;4996225;28;20041;-55
2021/04/21 03:46:21;;;;;;;16.20;10.98;;;5.60;81.00;;;;;;4999678;28;20505;-55
2021/04/21 03:48:47;;;;;;;20.60;11.70;;;5.60;81.00;;;;;;4999870;28;20042;-56
2021/04/21 03:51:15;;;;;;;15.90;10.73;;;5.60;81.20;;;;;;4999137;28;20096;-54
2021/04/21 03:53:43;;;;;;;18.33;11.90;;;5.60;81.20;;;;;;4999275;28;20060;-55
2021/04/21 03:56:14;;;;;;;16.50;10.88;;;5.60;81.70;;;;;;5006078;28;20470;-55
2021/04/21 03:58:42;;;;;;;18.10;11.27;;;5.60;81.50;;;;;;5004705;28;20054;-55
2021/04/21 04:01:19;;;;;;;18.27;11.05;;;5.60;81.50;;;;;;4997635;28;20388;-55
2021/04/21 04:03:58;;;;;;;16.58;10.98;;;5.60;81.40;;;;;;5005031;28;20052;-55
2021/04/21 04:06:55;;;;;;;16.88;11.20;;;5.60;81.50;;;;;;5001146;28;20453;-55
2021/04/21 04:09:23;;;;;;;16.65;11.90;;;5.60;81.30;;;;;;4991965;28;20125;-53
2021/04/21 04:12:04;;;;;;;16.48;10.90;;;5.60;81.30;;;;;;5007332;28;20041;-55
2021/04/21 04:14:31;;;;;;;17.20;11.45;;;5.60;81.60;;;;;;5012878;28;20042;-53
2021/04/21 04:17:03;;;;;;;15.55;11.38;;;5.60;81.40;;;;;;4993797;28;20138;-53
2021/04/21 04:19:37;;;;;;;20.92;12.40;;;5.60;81.30;;;;;;5005010;28;20549;-55
2021/04/21 04:22:02;;;;;;;22.88;13.63;;;5.60;81.70;;;;;;5003263;28;20030;-55
2021/04/21 04:24:35;;;;;;;18.38;13.43;;;5.60;81.50;;;;;;5001197;28;20034;-55
2021/04/21 04:27:01;;;;;;;24.75;14.00;;;5.60;81.40;;;;;;4999059;28;20048;-55
2021/04/21 04:29:27;;;;;;;23.85;14.18;;;5.60;81.30;;;;;;5004086;28;20515;-54
2021/04/21 04:32:01;;;;;;;23.58;14.30;;;5.60;81.40;;;;;;5005181;28;20072;-55
2021/04/21 04:34:29;;;;;;;19.58;14.25;;;5.70;81.30;;;;;;4998283;28;20101;-55
2021/04/21 04:36:55;;;;;;;24.17;15.23;;;5.70;81.10;;;;;;4997101;28;20038;-54
2021/04/21 04:39:22;;;;;;;22.70;15.05;;;5.80;80.80;;;;;;4999277;28;20074;-55
2021/04/21 04:41:48;;;;;;;21.83;14.90;;;5.80;81.00;;;;;;5000249;28;20041;-54
2021/04/21 04:44:14;;;;;;;22.05;15.00;;;5.90;80.70;;;;;;4998667;28;20321;-53
2021/04/21 04:46:46;;;;;;;23.25;14.68;;;6.00;80.60;;;;;;4998096;28;20069;-54
2021/04/21 04:49:18;;;;;;;23.48;15.35;;;6.00;80.40;;;;;;5005029;28;20042;-52
2021/04/21 04:51:45;;;;;;;22.05;14.70;;;5.90;80.40;;;;;;4999898;28;20038;-55
2021/04/21 04:54:13;;;;;;;21.75;14.95;;;6.00;80.30;;;;;;5007441;28;20062;-55
2021/04/21 04:56:43;;;;;;;20.98;13.85;;;6.00;80.30;;;;;;5002933;28;20418;-55
2021/04/21 04:59:12;;;;;;;22.83;15.15;;;6.00;80.30;;;;;;5002380;28;20054;-55
2021/04/21 05:02:00;;;;;;;18.30;13.88;;;6.00;80.40;;;;;;4994793;28;20073;-55
2021/04/21 05:04:33;;;;;;;20.50;15.32;;;6.00;80.30;;;;;;4996359;28;20041;-55
2021/04/21 05:07:04;;;;;;;22.90;14.80;;;6.00;80.40;;;;;;5002828;28;20070;-55
2021/04/21 05:09:32;;;;;;;22.13;15.20;;;6.00;80.10;;;;;;5001068;28;20038;-53
2021/04/21 05:12:01;;;;;;;23.65;15.70;;;6.00;80.20;;;;;;5000516;28;20487;-55
2021/04/21 05:14:37;;;;;;;21.17;14.55;;;6.00;80.10;;;;;;4994462;28;20064;-55
2021/04/21 05:17:33;;;;;;;24.30;14.85;;;6.10;80.20;;;;;;4996928;28;20041;-55
2021/04/21 05:20:17;;;;;;;20.02;13.40;;;6.10;80.40;;;;;;5003178;28;20168;-54
2021/04/21 05:23:06;;;;;;;20.05;14.15;;;6.10;80.20;;;;;;4999189;28;20038;-54
2021/04/21 05:25:47;;;;;;;20.40;14.48;;;6.10;80.30;;;;;;4993349;28;20047;-53
2021/04/21 05:28:37;;;;;;;21.05;14.68;;;6.00;80.30;;;;;;5002681;28;20060;-52
2021/04/21 05:31:19;;;;;;;19.33;13.77;;;6.00;80.50;;;;;;4998592;28;20046;-55
2021/04/21 05:34:19;;;;;;;18.27;13.30;;;6.10;80.50;;;;;;5003566;28;20104;-55
2021/04/21 05:36:44;;;;;;;20.85;13.70;;;6.20;80.60;;;;;;5000010;28;20519;-54
2021/04/21 05:39:32;;;;;;;23.85;13.60;;;6.30;79.80;;;;;;5001090;28;20046;-53
2021/04/21 05:42:18;;;;;;;28.73;15.63;;;6.50;79.80;;;;;;5004940;28;20041;-51
2021/04/21 05:45:13;;;;;;;22.42;14.88;;;6.60;79.40;;;;;;4999898;28;20169;-54
2021/04/21 05:47:51;;;;;;;23.13;14.60;;;6.80;79.30;;;;;;4996439;28;20042;-54
2021/04/21 05:50:53;;;;;;;22.50;14.50;;;7.00;78.70;;;;;;5000284;28;20558;-50
2021/04/21 05:53:44;;;;;;;20.80;14.43;;;7.30;78.60;;;;;;5003692;28;20037;-52
2021/04/21 05:56:57;;;;;;;19.52;14.40;;;7.50;77.60;;;;;;4993833;28;20569;-54
2021/04/21 05:59:45;;;;;;;21.98;14.23;;;7.70;77.30;;;;;;5000878;28;20388;-55
2021/04/21 06:02:11;;;;;;;27.60;14.95;;;8.00;76.50;;;;;;5001297;28;20494;-55
2021/04/21 06:04:37;;;;;;;20.55;15.25;;;8.50;75.30;;;;;;4998540;28;20046;-56
2021/04/21 06:07:10;;;;;;;19.48;14.63;;;8.90;74.30;;;;;;4995640;28;20062;-55
2021/04/21 06:09:36;;;;;;;19.40;14.32;;;9.30;73.20;;;;;;4999528;28;20073;-55
2021/04/21 06:12:12;;;;;;;21.83;15.30;;;9.60;72.00;;;;;;5007184;28;20525;-55
2021/04/21 06:14:38;;;;;;;18.42;14.57;;;9.80;72.20;;;;;;4999126;28;20062;-55
2021/04/21 06:17:04;;;;;;;21.23;14.45;;;9.90;71.70;;;;;;4996519;28;20041;-54
2021/04/21 06:19:30;;;;;;;22.35;14.23;;;10.10;71.30;;;;;;5008092;28;20088;-55
2021/04/21 06:21:56;;;;;;;22.13;14.60;;;10.40;70.30;;;;;;5009366;28;20062;-56
2021/04/21 06:24:25;;;;;;;20.75;13.13;;;10.40;69.80;;;;;;5008509;28;20396;-55
2021/04/21 06:27:04;;;;;;;18.40;12.82;;;10.40;69.80;;;;;;5006869;28;20053;-54
2021/04/21 06:29:29;;;;;;;25.30;13.18;;;10.60;69.70;;;;;;5006039;28;20285;-55
2021/04/21 06:32:04;;;;;;;18.13;13.15;;;10.50;69.70;;;;;;5007027;28;20554;-56
2021/04/21 06:34:30;;;;;;;17.80;12.57;;;10.50;69.90;;;;;;4999483;28;20084;-54
2021/04/21 06:36:58;;;;;;;17.45;11.40;;;10.50;70.20;;;;;;4991723;28;20081;-55
2021/04/21 06:39:26;;;;;;;16.08;11.80;;;10.50;69.70;;;;;;5000453;28;20430;-55
2021/04/21 06:42:10;;;;;;;19.73;12.13;;;10.50;69.60;;;;;;4997585;28;20054;-55
2021/04/21 06:44:44;;;;;;;14.88;11.65;;;10.50;68.30;;;;;;4999215;28;20034;-55
2021/04/21 06:47:12;;;;;;;17.40;12.63;;;10.50;68.50;;;;;;4998885;28;20149;-54
2021/04/21 06:49:37;;;;;;;15.52;11.20;;;10.60;68.70;;;;;;5007901;28;20496;-48
2021/04/21 06:52:14;;;;;;;17.00;11.70;;;10.60;67.90;;;;;;5005677;28;20030;-51
2021/04/21 06:54:40;;;;;;;19.25;12.65;;;10.60;68.40;;;;;;5006649;28;20042;-51
2021/04/21 06:57:06;;;;;;;18.65;11.98;;;10.60;69.00;;;;;;4988525;28;20038;-52
2021/04/21 07:00:03;;;;;;;15.95;11.18;;;10.70;68.50;;;;;;5005442;28;20109;-52
2021/04/21 07:02:43;;;;;;;18.30;12.47;;;10.70;67.40;;;;;;5007171;28;20156;-52
2021/04/21 07:05:25;;;;;;;16.42;11.50;;;10.80;68.10;;;;;;5006439;28;20053;-52
2021/04/21 07:08:00;;;;;;;17.70;11.38;;;11.00;67.30;;;;;;4985203;28;20403;-52
2021/04/21 07:10:27;;;;;;;13.90;9.88;;;11.10;67.00;;;;;;5005062;28;20505;-57
2021/04/21 07:12:54;;;;;;;17.02;11.07;;;11.20;66.50;;;;;;5007201;28;20046;-54
2021/04/21 07:15:20;;;;;;;18.60;11.60;;;11.40;64.90;;;;;;5003781;28;20046;-54
2021/04/21 07:17:49;;;;;;;15.90;11.02;;;11.40;64.00;;;;;;5001586;28;20140;-55
2021/04/21 07:20:16;;;;;;;16.98;12.07;;;11.40;64.10;;;;;;5004315;28;20054;-55
2021/04/21 07:22:42;;;;;;;18.42;12.48;;;11.50;64.80;;;;;;5007284;28;20532;-52
2021/04/21 07:25:13;;;;;;;19.33;12.10;;;11.60;65.40;;;;;;5008853;28;20041;-55
2021/04/21 07:27:41;;;;;;;18.40;11.80;;;11.70;65.60;;;;;;5007706;28;20605;-53
2021/04/21 07:30:07;;;;;;;18.60;13.02;;;11.80;65.30;;;;;;5010094;28;20084;-52
2021/04/21 07:32:43;;;;;;;21.88;13.70;;;11.80;65.00;;;;;;5010440;28;20038;-51
2021/04/21 07:35:25;;;;;;;21.98;15.02;;;12.00;65.20;;;;;;5011109;28;20041;-53
2021/04/21 07:37:52;;;;;;;23.25;15.55;;;12.00;66.00;;;;;;5000453;28;20050;-54
2021/04/21 07:40:25;;;;;;;24.55;15.48;;;12.00;66.60;;;;;;5008702;28;20161;-54
2021/04/21 07:42:51;;;;;;;27.85;16.55;;;12.10;65.50;;;;;;5006826;28;20046;-52
2021/04/21 07:45:20;;;;;;;25.45;14.63;;;12.10;66.00;;;;;;5010852;28;20393;-55
2021/04/21 07:47:47;;;;;;;25.98;16.15;;;12.20;65.20;;;;;;5003242;28;20095;-54
2021/04/21 07:50:13;;;;;;;23.17;14.63;;;12.30;65.80;;;;;;5007831;28;20045;-53
2021/04/21 07:52:38;;;;;;;30.27;17.58;;;12.20;66.70;;;;;;5006432;28;20505;-55
2021/04/21 07:55:18;;;;;;;32.83;19.77;;;12.10;68.10;;;;;;5008516;28;20041;-54
2021/04/21 07:58:00;;;;;;;29.50;19.75;;;11.90;69.20;;;;;;5005507;28;20411;-54
2021/04/21 08:00:29;;;;;;;29.92;19.50;;;12.00;70.70;;;;;;5009575;28;20096;-57
2021/04/21 08:03:25;;;;;;;30.40;20.85;;;12.00;69.50;;;;;;5006739;28;20100;-54
2021/04/21 08:05:52;;;;;;;32.78;21.30;;;11.90;70.80;;;;;;5006478;28;20683;-52
2021/04/21 08:08:29;;;;;;;33.08;22.50;;;11.70;71.40;;;;;;5005868;28;20061;-55
2021/04/21 08:10:58;;;;;;;37.28;23.70;;;11.80;72.60;;;;;;5004809;28;20509;-52
2021/04/21 08:13:41;;;;;;;34.58;23.58;;;11.70;73.30;;;;;;5000931;28;20054;-51
2021/04/21 08:16:26;;;;;;;32.88;22.52;;;11.70;73.80;;;;;;5004706;28;20446;-55
2021/04/21 08:18:54;;;;;;;39.92;23.83;;;11.60;74.10;;;;;;5008280;28;20046;-53
2021/04/21 08:21:40;;;;;;;42.72;25.67;;;11.80;74.50;;;;;;5009130;28;20667;-51
2021/04/21 08:24:13;;;;;;;42.55;25.02;;;11.80;74.90;;;;;;5003048;28;20042;-55
2021/04/21 08:26:40;;;;;;;37.38;23.65;;;11.70;74.80;;;;;;5007104;28;20180;-55
2021/04/21 08:29:09;;;;;;;42.80;24.08;;;11.60;75.20;;;;;;5008975;28;20049;-52
2021/04/21 08:31:35;;;;;;;38.00;22.92;;;11.70;74.50;;;;;;5010935;28;20054;-53
2021/04/21 08:34:01;;;;;;;38.65;23.00;;;11.90;75.40;;;;;;5009096;28;20069;-54
2021/04/21 08:36:27;;;;;;;46.63;25.15;;;12.10;73.50;;;;;;5010353;28;20068;-52
2021/04/21 08:38:53;;;;;;;38.92;21.30;;;12.00;73.90;;;;;;5009962;28;20064;-53
2021/04/21 08:41:21;;;;;;;35.55;21.50;;;11.80;74.50;;;;;;5007480;28;20495;-54
2021/04/21 08:43:49;;;;;;;38.20;20.65;;;12.10;74.00;;;;;;5008680;28;20141;-53
2021/04/21 08:46:17;;;;;;;36.90;20.20;;;11.80;74.10;;;;;;5001165;28;20133;-54
2021/04/21 08:48:43;;;;;;;34.70;20.33;;;11.70;74.20;;;;;;5004578;28;20066;-51
2021/04/21 08:51:17;;;;;;;35.05;20.73;;;11.80;74.00;;;;;;5005739;28;20042;-53
2021/04/21 08:53:50;;;;;;;34.05;19.92;;;11.90;73.80;;;;;;4996951;28;20042;-53
2021/04/21 08:56:18;;;;;;;36.67;18.08;;;12.00;72.90;;;;;;5000884;28;20180;-54
2021/04/21 08:58:46;;;;;;;36.00;20.48;;;12.10;72.80;;;;;;4992854;28;20042;-53
2021/04/21 09:01:13;;;;;;;36.00;20.85;;;12.00;73.10;;;;;;4993074;28;20046;-53
2021/04/21 09:03:40;;;;;;;36.13;21.33;;;12.00;74.00;;;;;;4993623;28;20042;-53
2021/04/21 09:06:07;;;;;;;36.58;22.50;;;11.90;72.80;;;;;;4998607;28;20418;-54
2021/04/21 09:08:33;;;;;;;32.45;19.13;;;11.80;73.10;;;;;;4997473;28;20498;-50
2021/04/21 09:10:59;;;;;;;37.35;22.80;;;11.80;74.50;;;;;;4999754;28;20073;-52
2021/04/21 09:13:25;;;;;;;40.85;20.80;;;11.70;74.30;;;;;;4998828;28;20128;-53
2021/04/21 09:15:52;;;;;;;38.58;22.92;;;11.70;74.70;;;;;;5007879;28;20046;-51
2021/04/21 09:18:25;;;;;;;38.95;23.10;;;11.80;74.50;;;;;;5003502;28;20411;-54
2021/04/21 09:20:51;;;;;;;41.33;24.67;;;11.70;75.40;;;;;;5022863;28;20388;-52
2021/04/21 09:23:19;;;;;;;39.33;23.25;;;11.70;74.80;;;;;;4998378;28;20053;-53
2021/04/21 09:25:47;;;;;;;36.53;23.58;;;11.60;75.30;;;;;;5001225;28;20038;-51
2021/04/21 09:28:13;;;;;;;42.10;23.85;;;11.50;75.80;;;;;;4997431;28;20423;-53
2021/04/21 09:30:42;;;;;;;42.67;24.15;;;11.60;75.30;;;;;;5006944;28;20052;-53
2021/04/21 09:33:08;;;;;;;42.95;24.58;;;11.60;75.50;;;;;;5000168;28;20046;-53
2021/04/21 09:35:40;;;;;;;42.40;23.58;;;11.50;76.50;;;;;;4997946;28;20089;-53
2021/04/21 09:38:09;;;;;;;45.03;24.48;;;11.50;76.50;;;;;;5000519;28;20041;-53
2021/04/21 09:40:38;;;;;;;42.83;24.77;;;11.40;77.30;;;;;;5002595;28;20049;-53
2021/04/21 09:43:06;;;;;;;46.67;24.75;;;11.40;77.30;;;;;;5003011;28;20049;-53
2021/04/21 09:45:36;;;;;;;54.63;28.08;;;11.40;77.90;;;;;;5007261;28;20133;-51
2021/04/21 09:48:11;;;;;;;46.97;27.00;;;11.30;78.20;;;;;;5010393;28;20486;-53
2021/04/21 09:50:38;;;;;;;50.20;26.95;;;11.10;79.00;;;;;;4999435;28;20046;-50
2021/04/21 09:53:24;;;;;;;50.30;25.48;;;11.00;79.30;;;;;;5012830;28;20044;-50
2021/04/21 09:56:20;;;;;;;46.00;24.20;;;11.00;79.50;;;;;;5013381;28;20101;-52
2021/04/21 09:58:57;;;;;;;42.22;24.08;;;11.20;78.10;;;;;;5005580;28;20042;-52
2021/04/21 10:01:32;;;;;;;42.15;23.15;;;11.20;78.00;;;;;;5005550;28;20387;-51
2021/04/21 10:04:14;;;;;;;39.75;21.98;;;11.30;78.50;;;;;;5010125;28;20100;-49
2021/04/21 10:06:43;;;;;;;41.10;22.65;;;11.30;77.30;;;;;;5004590;28;20042;-50
2021/04/21 10:09:41;;;;;;;42.22;21.52;;;11.20;77.00;;;;;;5005964;28;20414;-53
2021/04/21 10:12:32;;;;;;;30.45;18.17;;;11.10;77.20;;;;;;4988782;28;20081;-50
2021/04/21 10:15:02;;;;;;;36.35;20.23;;;11.20;76.20;;;;;;4998869;28;20052;-49
2021/04/21 10:17:29;;;;;;;33.38;19.30;;;11.10;75.70;;;;;;5010594;28;20103;-53
2021/04/21 10:19:58;;;;;;;36.28;19.67;;;11.00;75.90;;;;;;5000554;28;20096;-53
2021/04/21 10:22:24;;;;;;;32.47;19.23;;;10.90;76.50;;;;;;5005553;28;20125;-51
2021/04/21 10:24:52;;;;;;;33.53;18.70;;;10.90;76.90;;;;;;5011744;28;20041;-49
2021/04/21 10:27:18;;;;;;;29.35;17.65;;;11.00;76.80;;;;;;5012663;28;20042;-53
2021/04/21 10:29:45;;;;;;;27.98;17.60;;;11.10;75.90;;;;;;5022195;28;20060;-51
2021/04/21 10:32:15;;;;;;;32.70;14.80;;;11.00;76.20;;;;;;5016289;28;20051;-51
2021/04/21 10:34:44;;;;;;;20.85;11.93;;;11.00;74.70;;;;;;5010870;28;20565;-48
2021/04/21 10:37:15;;;;;;;19.50;11.48;;;11.00;74.40;;;;;;5008733;28;20050;-54
2021/04/21 10:39:45;;;;;;;21.00;11.80;;;11.00;74.60;;;;;;5013554;28;20046;-53
2021/04/21 10:42:16;;;;;;;16.02;9.35;;;11.20;74.40;;;;;;5010910;28;20104;-55
2021/04/21 10:44:44;;;;;;;13.65;6.38;;;11.30;73.30;;;;;;4993283;28;20110;-52
2021/04/21 10:47:18;;;;;;;11.02;4.97;;;11.40;71.20;;;;;;5012645;28;20037;-52
2021/04/21 10:49:50;;;;;;;5.55;3.35;;;11.40;68.90;;;;;;5007681;28;20042;-52
2021/04/21 10:52:26;;;;;;;9.68;4.03;;;11.60;66.40;;;;;;5015870;28;20046;-52
2021/04/21 10:54:56;;;;;;;8.10;4.10;;;11.60;65.90;;;;;;5007291;28;20510;-54
2021/04/21 10:57:30;;;;;;;7.03;3.50;;;11.60;66.30;;;;;;5022065;28;20503;-52
2021/04/21 11:00:12;;;;;;;8.20;2.78;;;11.60;65.40;;;;;;5010294;28;20113;-54
2021/04/21 11:02:44;;;;;;;7.05;2.78;;;11.80;64.70;;;;;;5037666;28;20065;-52
2021/04/21 11:05:19;;;;;;;10.95;2.85;;;11.90;64.20;;;;;;5005788;28;20049;-53
2021/04/21 11:08:07;;;;;;;5.25;2.60;;;11.80;64.40;;;;;;5015832;28;20048;-54
2021/04/21 11:10:35;;;;;;;6.82;2.70;;;11.90;65.10;;;;;;5004982;28;20074;-54
2021/04/21 11:13:02;;;;;;;7.97;2.35;;;12.00;64.90;;;;;;5007207;28;20053;-53
2021/04/21 11:15:50;;;;;;;7.80;2.38;;;12.10;62.80;;;;;;5013585;28;20042;-53
2021/04/21 11:18:33;;;;;;;9.73;2.80;;;12.20;62.50;;;;;;5014200;28;20030;-50
2021/04/21 11:21:02;;;;;;;8.13;2.95;;;12.20;63.70;;;;;;5010126;28;20057;-53
2021/04/21 11:23:55;;;;;;;8.55;2.20;;;12.20;62.80;;;;;;5009986;28;20038;-52
2021/04/21 11:26:27;;;;;;;8.63;1.90;;;12.30;61.30;;;;;;5018733;28;20417;-49
2021/04/21 11:29:02;;;;;;;4.57;2.05;;;12.20;61.40;;;;;;5016744;28;20049;-50
2021/04/21 11:31:44;;;;;;;9.35;2.05;;;12.30;62.50;;;;;;5019539;28;20048;-48
2021/04/21 11:34:16;;;;;;;8.63;2.10;;;12.40;61.60;;;;;;5019118;28;20049;-52
2021/04/21 11:37:06;;;;;;;8.93;2.20;;;12.50;59.40;;;;;;5016183;28;20510;-49
2021/04/21 11:39:44;;;;;;;6.88;2.20;;;12.50;59.30;;;;;;5006219;28;20034;-49
2021/04/21 11:42:33;;;;;;;4.80;1.85;;;12.60;59.20;;;;;;5015484;28;20042;-52
2021/04/21 11:45:25;;;;;;;9.77;2.00;;;12.80;58.70;;;;;;5014340;28;20038;-49
2021/04/21 11:48:03;;;;;;;9.98;2.58;;;12.90;56.50;;;;;;4999941;28;20054;-53
2021/04/21 11:50:34;;;;;;;12.80;2.35;;;12.80;58.10;;;;;;5009774;28;20053;-50
2021/04/21 11:53:06;;;;;;;8.23;2.05;;;12.70;58.60;;;;;;5015729;28;20050;-49
2021/04/21 11:55:56;;;;;;;11.82;2.90;;;12.50;58.60;;;;;;5018278;28;20062;-52
2021/04/21 11:58:32;;;;;;;10.32;2.67;;;12.60;57.40;;;;;;5006948;28;20034;-50
2021/04/21 12:01:06;;;;;;;11.80;2.83;;;12.50;58.10;;;;;;4998280;28;20061;-49
2021/04/21 12:03:36;;;;;;;10.15;2.65;;;12.90;57.90;;;;;;5006196;28;20046;-50
2021/04/21 12:06:17;;;;;;;11.13;3.20;;;12.80;58.00;;;;;;5002709;28;20384;-49
2021/04/21 12:08:48;;;;;;;10.32;2.97;;;12.60;58.60;;;;;;5007323;28;20084;-53
2021/04/21 12:11:22;;;;;;;14.48;2.88;;;12.50;58.80;;;;;;5007761;28;20474;-51
2021/04/21 12:13:47;;;;;;;12.45;2.45;;;12.30;59.30;;;;;;5003936;28;20460;-50
2021/04/21 12:16:18;;;;;;;11.60;2.85;;;12.30;58.10;;;;;;5004640;28;20045;-52
2021/04/21 12:18:49;;;;;;;11.05;2.83;;;12.20;58.60;;;;;;5008163;28;20045;-51
2021/04/21 12:21:14;;;;;;;13.45;2.95;;;12.30;57.80;;;;;;5005885;28;20404;-50
2021/04/21 12:23:41;;;;;;;14.05;2.95;;;12.50;56.70;;;;;;5005909;28;20053;-52
2021/04/21 12:26:16;;;;;;;11.00;2.63;;;12.30;58.30;;;;;;5012734;28;20565;-53
2021/04/21 12:28:43;;;;;;;13.93;3.00;;;12.40;58.30;;;;;;5013683;28;20042;-54
2021/04/21 12:31:09;;;;;;;15.68;2.90;;;12.60;56.90;;;;;;5006852;28;20137;-55
2021/04/21 12:33:35;;;;;;;18.55;3.35;;;12.50;57.40;;;;;;5008334;28;20117;-53
2021/04/21 12:36:01;;;;;;;12.63;3.42;;;12.40;57.80;;;;;;5000822;28;20080;-51
2021/04/21 12:38:32;;;;;;;13.88;3.15;;;12.20;57.40;;;;;;5001761;28;20073;-53
2021/04/21 12:41:02;;;;;;;10.38;2.80;;;12.40;58.10;;;;;;5008899;28;20036;-53
2021/04/21 12:43:35;;;;;;;12.52;2.50;;;12.40;56.50;;;;;;5005626;28;20061;-54
2021/04/21 12:46:22;;;;;;;15.40;3.00;;;12.50;57.00;;;;;;5008072;28;20046;-53
2021/04/21 12:48:56;;;;;;;15.05;3.20;;;12.70;57.70;;;;;;5004532;28;20058;-51
2021/04/21 12:51:29;;;;;;;16.98;3.13;;;12.80;57.20;;;;;;5012160;28;20052;-54
2021/04/21 12:53:55;;;;;;;15.32;2.90;;;12.70;56.00;;;;;;5001371;28;20056;-54
2021/04/21 12:56:21;;;;;;;15.98;3.00;;;12.40;56.30;;;;;;5004170;28;20058;-52
2021/04/21 12:58:47;;;;;;;14.80;2.90;;;12.40;57.70;;;;;;5004882;28;20039;-52
2021/04/21 13:01:23;;;;;;;15.07;2.88;;;12.40;57.50;;;;;;5000077;28;20043;-51
2021/04/21 13:03:55;;;;;;;15.55;3.83;;;12.60;56.40;;;;;;4999444;28;20099;-51
2021/04/21 13:06:40;;;;;;;8.55;2.80;;;12.80;55.80;;;;;;5006690;28;20077;-51
2021/04/21 13:09:20;;;;;;;14.35;3.53;;;12.90;53.80;;;;;;5005868;28;20049;-52
2021/04/21 13:11:47;;;;;;;12.55;3.05;;;12.70;53.30;;;;;;5002080;28;20034;-53
2021/04/21 13:14:14;;;;;;;11.68;2.88;;;12.60;52.90;;;;;;5001608;28;20165;-55